Time;durP1;ratioP1;P1;durP2;ratioP2;P2;SDS_P1;SDS_P2;PMS_P1;PMS_P2;Temp;Humidity;BMP_temperature;BMP_pressure;BME280_temperature;BME280_humidity;BME280_pressure;Samples;Min_cycle;Max_cycle;Signal;HPM_P1;HPM_P2
2021/12/16 00:07:18;;;;;;;20.95;8.13;;;4.40;99.90;;;;;;5083138;28;20295;-81
2021/12/16 00:09:55;;;;;;;16.02;9.85;;;4.60;99.90;;;;;;5079722;28;20234;-80
2021/12/16 00:31:58;;;;;;;12.85;9.85;;;;;;;;;;5075929;28;20613;-81
2021/12/16 00:34:28;;;;;;;13.40;10.00;;;4.50;99.90;;;;;;5075961;28;20206;-80
2021/12/16 00:36:56;;;;;;;17.17;11.00;;;4.50;99.90;;;;;;5077793;28;20254;-80
2021/12/16 00:39:26;;;;;;;16.33;11.00;;;4.50;99.90;;;;;;5075070;28;20693;-81
2021/12/16 00:42:00;;;;;;;17.52;11.30;;;4.50;99.90;;;;;;5079356;28;20234;-80
2021/12/16 00:45:01;;;;;;;14.90;9.93;;;;;;;;;;5075926;28;20209;-80
2021/12/16 00:47:34;;;;;;;13.88;9.73;;;4.40;99.90;;;;;;5077604;28;20209;-81
2021/12/16 00:50:22;;;;;;;18.85;10.40;;;4.50;99.90;;;;;;5079960;28;20588;-80
2021/12/16 00:55:46;;;;;;;17.92;11.93;;;;;;;;;;5075091;28;20219;-81
2021/12/16 00:58:16;;;;;;;15.43;10.90;;;;;;;;;;5079122;28;20204;-80
2021/12/16 01:00:50;;;;;;;19.63;10.88;;;;;;;;;;5078835;28;20210;-80
2021/12/16 01:03:24;;;;;;;19.73;10.55;;;;;;;;;;5073360;28;20199;-80
2021/12/16 01:06:18;;;;;;;17.95;11.80;;;;;;;;;;5076463;28;20237;-81
2021/12/16 01:09:07;;;;;;;16.83;10.35;;;;;;;;;;5081818;28;20203;-81
2021/12/16 01:34:02;;;;;;;17.73;11.20;;;;;;;;;;5041767;28;20222;-81
2021/12/16 01:36:44;;;;;;;18.98;11.95;;;;;;;;;;5076646;28;20202;-80
2021/12/16 01:50:26;;;;;;;19.23;11.45;;;4.70;99.90;;;;;;5077660;28;20325;-82
2021/12/16 01:55:49;;;;;;;17.00;10.90;;;4.50;99.90;;;;;;5077398;28;20321;-82
2021/12/16 01:58:20;;;;;;;16.63;10.98;;;4.60;99.90;;;;;;5084133;28;20198;-82
2021/12/16 02:00:57;;;;;;;19.77;11.60;;;4.50;99.90;;;;;;5070814;28;20235;-81
2021/12/16 02:03:39;;;;;;;19.42;12.13;;;4.50;99.90;;;;;;5084115;28;20201;-80
2021/12/16 02:06:15;;;;;;;20.50;12.10;;;4.60;99.90;;;;;;5082254;28;20542;-80
2021/12/16 02:08:43;;;;;;;13.68;9.65;;;4.50;99.90;;;;;;5079568;28;20222;-81
2021/12/16 02:11:25;;;;;;;16.98;10.23;;;4.50;99.90;;;;;;5081034;28;20700;-81
2021/12/16 02:27:52;;;;;;;17.45;10.13;;;4.50;99.90;;;;;;5082904;28;20195;-81
2021/12/16 02:34:03;;;;;;;16.60;10.50;;;4.60;99.90;;;;;;5084570;28;20213;-81
2021/12/16 02:36:37;;;;;;;20.65;11.65;;;4.50;99.90;;;;;;5082002;28;20198;-81
2021/12/16 02:39:09;;;;;;;15.90;10.93;;;4.50;99.90;;;;;;5081675;28;20289;-81
2021/12/16 02:41:39;;;;;;;19.20;12.15;;;4.50;99.90;;;;;;5081289;28;20293;-81
2021/12/16 02:44:32;;;;;;;18.10;11.55;;;;;;;;;;5084319;28;20214;-81
2021/12/16 02:49:47;;;;;;;18.45;11.43;;;4.40;99.90;;;;;;5084586;28;20496;-81
2021/12/16 02:52:16;;;;;;;19.30;12.15;;;4.80;99.90;;;;;;5079737;28;20217;-80
2021/12/16 02:54:45;;;;;;;16.35;11.25;;;4.50;99.90;;;;;;5081111;28;20198;-80
2021/12/16 02:57:12;;;;;;;18.98;11.93;;;4.40;99.90;;;;;;5066708;28;20699;-81
2021/12/16 02:59:41;;;;;;;23.05;12.95;;;4.50;99.90;;;;;;5080171;28;20292;-81
2021/12/16 03:02:11;;;;;;;19.65;12.25;;;4.40;99.90;;;;;;5084385;28;20199;-81
2021/12/16 03:04:41;;;;;;;20.60;12.30;;;4.50;99.90;;;;;;5079986;28;20205;-81
2021/12/16 03:07:11;;;;;;;18.92;12.80;;;4.60;99.90;;;;;;5081892;28;20212;-82
2021/12/16 03:10:10;;;;;;;20.10;12.93;;;4.30;99.90;;;;;;5077673;28;20219;-81
2021/12/16 03:15:40;;;;;;;19.98;13.35;;;4.50;99.90;;;;;;5070619;28;20210;-82
2021/12/16 03:18:17;;;;;;;19.65;12.13;;;4.50;99.90;;;;;;5079027;28;20215;-81
2021/12/16 03:20:48;;;;;;;22.40;12.38;;;;;;;;;;5081176;28;20570;-81
2021/12/16 03:23:38;;;;;;;22.33;13.00;;;4.50;99.90;;;;;;5079218;28;20293;-80
2021/12/16 03:29:11;;;;;;;19.08;12.60;;;4.30;99.90;;;;;;5078805;28;20210;-82
2021/12/16 03:31:53;;;;;;;18.25;10.95;;;4.30;99.90;;;;;;5081721;28;20821;-82
2021/12/16 03:34:34;;;;;;;19.90;13.52;;;;;;;;;;5076066;28;20202;-82
2021/12/16 03:39:53;;;;;;;22.50;12.68;;;4.40;99.90;;;;;;5071189;28;20231;-82
2021/12/16 03:42:24;;;;;;;23.80;13.55;;;4.40;99.90;;;;;;5081399;28;20318;-82
2021/12/16 03:44:58;;;;;;;22.45;11.80;;;4.40;99.90;;;;;;5077637;28;20547;-82
2021/12/16 03:47:33;;;;;;;25.17;12.30;;;4.40;99.90;;;;;;5077749;28;20748;-82
2021/12/16 03:50:00;;;;;;;23.25;13.10;;;;;;;;;;5088542;28;20707;-82
2021/12/16 03:52:28;;;;;;;22.27;13.00;;;;;;;;;;5073852;28;20305;-82
2021/12/16 03:54:57;;;;;;;23.45;12.85;;;4.40;99.90;;;;;;5080017;28;20260;-82
2021/12/16 03:57:26;;;;;;;21.60;15.00;;;4.40;99.90;;;;;;5075989;28;20300;-82
2021/12/16 03:59:55;;;;;;;22.58;13.20;;;4.50;99.90;;;;;;5081885;28;20213;-82
2021/12/16 04:02:25;;;;;;;23.73;13.18;;;4.50;99.90;;;;;;5083370;28;20235;-82
2021/12/16 04:04:53;;;;;;;20.83;12.25;;;4.30;99.90;;;;;;5078902;28;20233;-82
2021/12/16 04:07:22;;;;;;;20.05;11.85;;;4.50;99.90;;;;;;5080657;28;20195;-82
2021/12/16 04:09:50;;;;;;;24.00;12.25;;;;;;;;;;5080763;28;20762;-82
2021/12/16 04:12:20;;;;;;;27.08;13.90;;;;;;;;;;5080579;28;20430;-82
2021/12/16 04:14:49;;;;;;;19.52;11.82;;;4.50;99.90;;;;;;5075465;28;20207;-82
2021/12/16 04:17:19;;;;;;;20.35;12.27;;;4.60;99.90;;;;;;5081665;28;20210;-82
2021/12/16 04:19:47;;;;;;;16.85;10.73;;;;;;;;;;5075544;28;20746;-82
2021/12/16 04:22:17;;;;;;;19.67;12.63;;;4.70;99.90;;;;;;5084523;28;20304;-82
2021/12/16 04:24:46;;;;;;;20.52;12.05;;;4.60;99.90;;;;;;5074156;28;20376;-82
2021/12/16 04:27:14;;;;;;;23.80;13.85;;;4.60;99.90;;;;;;5080892;28;20287;-80
2021/12/16 04:29:42;;;;;;;21.08;12.32;;;;;;;;;;5079026;28;20316;-82
2021/12/16 04:32:10;;;;;;;19.90;13.10;;;4.50;99.90;;;;;;5079274;28;20282;-82
2021/12/16 04:34:38;;;;;;;19.20;13.30;;;4.50;99.90;;;;;;5080847;28;20203;-82
2021/12/16 04:37:06;;;;;;;21.30;12.90;;;4.60;99.90;;;;;;5076985;28;20293;-82
2021/12/16 04:39:34;;;;;;;18.95;13.15;;;4.70;99.90;;;;;;5082684;28;20305;-82
2021/12/16 04:42:02;;;;;;;19.60;13.63;;;4.70;99.90;;;;;;5078704;28;20284;-82
2021/12/16 04:44:30;;;;;;;25.73;13.80;;;4.70;99.90;;;;;;5079709;28;20281;-82
2021/12/16 04:46:58;;;;;;;21.33;13.60;;;4.70;99.90;;;;;;5068581;28;20255;-82
2021/12/16 04:49:26;;;;;;;23.33;12.55;;;4.70;99.90;;;;;;5079982;28;20297;-82
2021/12/16 04:51:57;;;;;;;27.98;13.93;;;4.60;99.90;;;;;;5083830;28;20289;-81
2021/12/16 04:54:27;;;;;;;27.40;15.70;;;4.60;99.90;;;;;;5077043;28;20278;-82
2021/12/16 04:56:55;;;;;;;29.73;12.70;;;4.60;99.90;;;;;;5077489;28;20264;-82
2021/12/16 04:59:24;;;;;;;25.23;15.05;;;4.50;99.90;;;;;;5077914;28;20283;-82
2021/12/16 05:01:53;;;;;;;26.25;14.73;;;4.50;99.90;;;;;;5081090;28;20831;-82
2021/12/16 05:04:21;;;;;;;23.88;13.00;;;;;;;;;;5083317;28;20285;-82
2021/12/16 05:06:48;;;;;;;25.27;14.25;;;;;;;;;;5079293;28;20639;-82
2021/12/16 05:09:44;;;;;;;24.90;15.63;;;;;;;;;;5078463;28;20287;-82
2021/12/16 05:12:04;;;;;;;23.05;14.18;;;;;;;;;;5077890;28;20203;-82
2021/12/16 05:14:32;;;;;;;29.27;14.07;;;;;;;;;;5081958;28;20237;-81
2021/12/16 05:16:59;;;;;;;18.85;12.32;;;;;;;;;;5084901;28;20609;-81
2021/12/16 05:19:26;;;;;;;21.70;13.40;;;;;;;;;;5082279;28;20206;-82
2021/12/16 05:21:58;;;;;;;26.63;13.65;;;;;;;;;;5087358;28;20251;-82
2021/12/16 05:24:26;;;;;;;18.85;12.77;;;4.50;99.90;;;;;;5080466;28;20207;-82
2021/12/16 05:26:55;;;;;;;17.25;11.32;;;4.50;99.90;;;;;;5085100;28;20214;-82
2021/12/16 05:29:22;;;;;;;18.10;11.48;;;;;;;;;;5084684;28;20235;-82
2021/12/16 05:31:50;;;;;;;22.67;13.02;;;;;;;;;;5088371;28;20317;-81
2021/12/16 05:34:17;;;;;;;20.95;12.52;;;;;;;;;;5079620;28;20261;-82
2021/12/16 05:36:45;;;;;;;25.65;11.68;;;4.40;99.90;;;;;;5085215;28;20290;-82
2021/12/16 05:39:12;;;;;;;23.38;13.55;;;;;;;;;;5081395;28;20209;-82
2021/12/16 05:41:41;;;;;;;18.27;11.50;;;;;;;;;;5081370;28;20247;-82
2021/12/16 05:44:08;;;;;;;19.63;12.25;;;;;;;;;;5077863;28;20304;-82
2021/12/16 05:46:35;;;;;;;21.58;11.95;;;;;;;;;;5079824;28;20639;-82
2021/12/16 05:49:04;;;;;;;19.05;11.95;;;4.30;99.90;;;;;;5077582;28;20229;-81
2021/12/16 05:51:33;;;;;;;24.80;12.27;;;4.00;99.90;;;;;;5080827;28;20319;-82
2021/12/16 05:54:02;;;;;;;19.15;10.73;;;4.40;99.90;;;;;;5084163;28;20236;-82
2021/12/16 05:56:30;;;;;;;25.42;11.90;;;4.30;99.90;;;;;;5083941;28;20230;-82
2021/12/16 05:58:58;;;;;;;26.30;11.93;;;;;;;;;;5083782;28;20297;-82
2021/12/16 06:01:29;;;;;;;19.50;12.65;;;4.10;99.90;;;;;;5085102;28;20241;-82
2021/12/16 06:03:56;;;;;;;24.13;11.30;;;;;;;;;;5082527;28;20212;-81
2021/12/16 06:06:24;;;;;;;21.85;12.25;;;4.20;99.90;;;;;;5084830;28;20229;-82
2021/12/16 06:08:53;;;;;;;21.30;11.65;;;4.00;99.90;;;;;;5086697;28;20233;-83
2021/12/16 06:11:22;;;;;;;20.35;11.23;;;4.20;99.90;;;;;;5086713;28;20230;-82
2021/12/16 06:14:02;;;;;;;17.85;11.20;;;4.30;99.90;;;;;;5082200;28;20205;-82
2021/12/16 06:27:33;;;;;;;21.38;10.88;;;;;;;;;;5079946;28;20211;-82
2021/12/16 06:30:00;;;;;;;22.10;11.05;;;;;;;;;;5081810;28;20213;-82
2021/12/16 06:32:29;;;;;;;22.27;12.23;;;;;;;;;;5080094;28;20735;-81
2021/12/16 06:34:56;;;;;;;18.85;11.07;;;;;;;;;;5089037;28;21093;-83
2021/12/16 06:37:24;;;;;;;18.77;12.13;;;4.40;99.90;;;;;;5082546;28;20661;-82
2021/12/16 06:39:52;;;;;;;19.85;10.27;;;4.20;99.90;;;;;;5077660;28;20214;-82
2021/12/16 06:42:19;;;;;;;15.75;9.88;;;;;;;;;;5075665;28;20221;-82
2021/12/16 06:44:52;;;;;;;15.77;9.60;;;;;;;;;;5081652;28;20272;-83
2021/12/16 06:47:23;;;;;;;17.33;10.25;;;;;;;;;;5081333;28;20210;-83
2021/12/16 06:49:54;;;;;;;20.40;10.27;;;4.50;99.90;;;;;;5082429;28;20269;-82
2021/12/16 06:52:29;;;;;;;23.00;11.80;;;4.40;99.90;;;;;;5083432;28;20230;-81
2021/12/16 06:55:08;;;;;;;26.63;11.73;;;;;;;;;;5081035;28;20206;-83
2021/12/16 06:57:41;;;;;;;19.33;11.18;;;;;;;;;;5083881;28;20213;-83
2021/12/16 07:00:16;;;;;;;19.63;10.95;;;4.30;99.90;;;;;;5079124;28;20219;-83
2021/12/16 07:02:58;;;;;;;18.55;11.23;;;4.30;99.90;;;;;;5079145;28;20292;-83
2021/12/16 07:05:30;;;;;;;21.38;11.00;;;4.40;99.90;;;;;;5078052;28;20603;-82
2021/12/16 07:07:57;;;;;;;21.77;11.27;;;4.50;99.90;;;;;;5070877;28;20214;-82
2021/12/16 07:10:25;;;;;;;20.17;11.90;;;4.40;99.90;;;;;;5083099;28;20227;-82
2021/12/16 07:12:56;;;;;;;19.63;12.25;;;4.50;99.90;;;;;;5078555;28;20232;-82
2021/12/16 07:15:27;;;;;;;19.20;10.38;;;4.50;99.90;;;;;;5083231;28;20269;-82
2021/12/16 07:17:54;;;;;;;21.48;12.52;;;;;;;;;;5081061;28;20245;-82
2021/12/16 07:20:24;;;;;;;23.35;11.25;;;4.40;99.90;;;;;;5081655;28;20285;-82
2021/12/16 07:22:52;;;;;;;20.85;10.93;;;4.40;99.90;;;;;;5082248;28;20233;-82
2021/12/16 07:25:19;;;;;;;24.10;13.27;;;;;;;;;;5084973;28;20206;-82
2021/12/16 07:27:47;;;;;;;22.35;12.15;;;;;;;;;;5081289;28;20229;-82
2021/12/16 07:30:16;;;;;;;18.17;11.55;;;4.50;99.90;;;;;;5080344;28;20225;-82
2021/12/16 07:32:45;;;;;;;20.58;11.65;;;;;;;;;;5080335;28;20218;-82
2021/12/16 07:35:16;;;;;;;21.50;11.90;;;4.50;99.90;;;;;;5082867;28;20238;-82
2021/12/16 07:37:46;;;;;;;16.63;9.82;;;4.40;99.90;;;;;;5079066;28;20216;-82
2021/12/16 07:40:18;;;;;;;19.52;11.82;;;4.60;99.90;;;;;;5083805;28;20840;-81
2021/12/16 07:42:49;;;;;;;20.70;11.43;;;;;;;;;;5081876;28;20648;-82
2021/12/16 07:45:19;;;;;;;20.27;11.13;;;4.50;99.90;;;;;;5072747;28;20195;-82
2021/12/16 07:47:47;;;;;;;15.52;10.27;;;;;;;;;;5086997;28;20230;-82
2021/12/16 07:50:16;;;;;;;23.40;11.93;;;4.50;99.90;;;;;;5079731;28;20674;-82
2021/12/16 07:52:44;;;;;;;21.25;12.00;;;;;;;;;;5080618;28;20238;-82
2021/12/16 07:55:15;;;;;;;20.33;11.57;;;4.30;99.90;;;;;;5079803;28;20210;-82
2021/12/16 07:57:44;;;;;;;20.23;11.77;;;;;;;;;;5079276;28;20202;-82
2021/12/16 08:00:14;;;;;;;18.88;11.23;;;4.30;99.90;;;;;;5082052;28;20203;-81
2021/12/16 08:02:42;;;;;;;22.27;11.63;;;;;;;;;;5081214;28;20205;-82
2021/12/16 08:05:10;;;;;;;18.40;11.00;;;4.50;99.90;;;;;;5082802;28;20221;-82
2021/12/16 08:07:40;;;;;;;27.25;10.98;;;4.40;99.90;;;;;;5078830;28;20206;-82
2021/12/16 08:10:10;;;;;;;14.35;10.13;;;4.70;99.90;;;;;;5087020;28;20574;-81
2021/12/16 08:12:39;;;;;;;17.00;10.68;;;;;;;;;;5080882;28;20279;-82
2021/12/16 08:15:07;;;;;;;16.95;9.23;;;4.60;99.90;;;;;;5076912;28;20790;-82
2021/12/16 08:17:35;;;;;;;19.65;11.23;;;;;;;;;;5076489;28;20210;-82
2021/12/16 08:20:04;;;;;;;15.23;10.82;;;;;;;;;;5079712;28;20226;-82
2021/12/16 08:22:31;;;;;;;18.00;10.85;;;;;;;;;;5079855;28;20209;-82
2021/12/16 08:24:58;;;;;;;16.17;10.55;;;;;;;;;;5080180;28;20553;-82
2021/12/16 08:27:25;;;;;;;17.98;10.52;;;;;;;;;;5078960;28;20203;-82
2021/12/16 08:29:54;;;;;;;14.77;10.15;;;;;;;;;;5077095;28;20791;-82
2021/12/16 08:32:23;;;;;;;21.23;11.35;;;;;;;;;;5077963;28;20292;-82
2021/12/16 08:34:50;;;;;;;16.52;11.10;;;;;;;;;;5079684;28;20210;-82
2021/12/16 08:37:17;;;;;;;15.70;9.73;;;;;;;;;;5083148;28;20696;-82
2021/12/16 08:39:45;;;;;;;17.38;11.93;;;;;;;;;;5076020;28;20290;-82
2021/12/16 08:42:12;;;;;;;14.18;9.63;;;;;;;;;;5078066;28;20206;-82
2021/12/16 08:44:40;;;;;;;16.80;10.20;;;;;;;;;;5079124;28;20659;-81
2021/12/16 08:47:12;;;;;;;14.15;10.20;;;4.80;99.90;;;;;;5076395;28;20204;-82
2021/12/16 08:49:40;;;;;;;14.48;8.63;;;4.50;99.90;;;;;;5081709;28;20210;-82
2021/12/16 08:52:12;;;;;;;12.80;8.60;;;4.90;99.90;;;;;;5078232;28;20255;-82
2021/12/16 08:54:40;;;;;;;21.05;11.27;;;5.30;99.90;;;;;;5078101;28;20252;-82
2021/12/16 08:57:07;;;;;;;19.27;11.25;;;5.00;99.90;;;;;;5078217;28;20211;-82
2021/12/16 08:59:35;;;;;;;14.57;10.23;;;;;;;;;;5078514;28;20203;-82
2021/12/16 09:02:03;;;;;;;19.55;10.80;;;5.10;99.90;;;;;;5082219;28;20199;-82
2021/12/16 09:04:31;;;;;;;18.95;11.85;;;5.10;99.90;;;;;;5075535;28;20265;-82
2021/12/16 09:07:02;;;;;;;20.92;11.20;;;5.10;99.90;;;;;;5079017;28;20203;-82
2021/12/16 09:09:32;;;;;;;16.45;11.07;;;5.00;99.90;;;;;;5079325;28;20208;-82
2021/12/16 09:12:06;;;;;;;22.60;11.80;;;5.20;99.90;;;;;;5083105;28;20218;-82
2021/12/16 09:14:35;;;;;;;15.80;11.48;;;5.20;99.90;;;;;;5079064;28;20242;-82
2021/12/16 09:17:02;;;;;;;14.70;11.05;;;;;;;;;;5077884;28;20208;-81
2021/12/16 09:19:31;;;;;;;17.58;10.63;;;;;;;;;;5078355;28;20261;-82
2021/12/16 09:21:58;;;;;;;18.75;10.63;;;5.30;99.90;;;;;;5079285;28;20206;-82
2021/12/16 09:24:25;;;;;;;17.98;9.40;;;;;;;;;;5078366;28;20207;-82
2021/12/16 09:26:53;;;;;;;15.82;9.35;;;;;;;;;;5077730;28;20272;-82
2021/12/16 09:29:20;;;;;;;13.52;10.10;;;;;;;;;;5074837;28;20218;-82
2021/12/16 09:31:48;;;;;;;14.95;10.60;;;;;;;;;;5076891;28;20250;-82
2021/12/16 09:34:15;;;;;;;16.67;11.55;;;;;;;;;;5077838;28;20310;-82
2021/12/16 09:36:45;;;;;;;17.08;10.18;;;5.40;99.90;;;;;;5079824;28;20297;-82
2021/12/16 09:39:17;;;;;;;14.98;9.45;;;5.30;99.90;;;;;;5079521;28;20215;-82
2021/12/16 09:41:52;;;;;;;18.92;12.32;;;5.40;99.90;;;;;;5079700;28;20281;-82
2021/12/16 09:44:20;;;;;;;17.20;10.70;;;;;;;;;;5075165;28;20272;-82
2021/12/16 09:46:48;;;;;;;13.73;9.60;;;5.60;99.90;;;;;;5074153;28;20215;-82
2021/12/16 09:49:15;;;;;;;14.55;9.40;;;;;;;;;;5079247;28;20204;-81
2021/12/16 09:51:46;;;;;;;14.25;10.52;;;5.50;99.90;;;;;;5079592;28;20269;-82
2021/12/16 09:54:16;;;;;;;13.60;9.63;;;5.80;99.90;;;;;;5073269;28;20199;-82
2021/12/16 09:56:46;;;;;;;13.95;9.98;;;5.50;99.90;;;;;;5082993;28;20256;-82
2021/12/16 09:59:16;;;;;;;14.73;9.00;;;6.10;99.90;;;;;;5080233;28;20207;-82
2021/12/16 10:01:45;;;;;;;14.73;9.32;;;5.70;99.90;;;;;;5079864;28;20210;-82
2021/12/16 10:04:19;;;;;;;18.35;11.82;;;5.60;99.90;;;;;;5084765;28;20203;-82
2021/12/16 10:06:50;;;;;;;15.80;9.55;;;5.60;99.90;;;;;;5080906;28;20195;-82
2021/12/16 10:09:18;;;;;;;13.05;9.70;;;;;;;;;;5081611;28;20207;-82
2021/12/16 10:11:48;;;;;;;17.42;10.40;;;5.70;99.90;;;;;;5082714;28;20291;-82
2021/12/16 10:14:31;;;;;;;12.50;9.68;;;5.70;99.90;;;;;;5081830;28;20274;-82
2021/12/16 10:19:44;;;;;;;16.15;10.35;;;;;;;;;;5080101;28;20693;-82
2021/12/16 10:22:26;;;;;;;14.52;9.00;;;5.80;99.90;;;;;;5086280;28;20238;-82
2021/12/16 10:24:56;;;;;;;18.40;11.07;;;5.70;99.90;;;;;;5080114;28;20300;-82
2021/12/16 10:27:27;;;;;;;16.90;10.32;;;5.70;99.90;;;;;;5081778;28;20202;-82
2021/12/16 10:29:57;;;;;;;16.00;10.18;;;5.80;99.90;;;;;;5084508;28;20215;-82
2021/12/16 10:32:37;;;;;;;19.00;11.43;;;5.90;99.90;;;;;;5080800;28;20227;-82
2021/12/16 10:35:08;;;;;;;20.23;10.75;;;5.90;99.90;;;;;;5082448;28;20198;-83
2021/12/16 10:37:39;;;;;;;16.88;10.80;;;5.90;99.90;;;;;;5079719;28;20322;-82
2021/12/16 10:40:37;;;;;;;20.00;11.30;;;5.80;99.90;;;;;;5075330;28;20212;-82
2021/12/16 10:43:08;;;;;;;17.73;10.55;;;5.90;99.90;;;;;;5080617;28;20261;-82
2021/12/16 10:45:40;;;;;;;15.13;9.40;;;6.00;99.90;;;;;;5082108;28;20203;-82
2021/12/16 10:48:20;;;;;;;14.70;10.27;;;5.90;99.90;;;;;;5082436;28;20199;-82
2021/12/16 10:51:19;;;;;;;17.58;10.82;;;5.90;99.90;;;;;;5080037;28;20264;-82
2021/12/16 10:54:07;;;;;;;13.70;9.88;;;5.90;99.90;;;;;;5058174;28;20231;-81
2021/12/16 10:56:41;;;;;;;14.30;9.32;;;6.00;99.90;;;;;;5073071;28;20584;-82
2021/12/16 10:59:13;;;;;;;13.13;9.40;;;5.90;99.90;;;;;;5084783;28;20203;-82
2021/12/16 11:01:49;;;;;;;16.67;9.88;;;5.90;99.90;;;;;;5082609;28;20211;-82
2021/12/16 11:04:21;;;;;;;13.35;8.50;;;5.90;99.90;;;;;;5079464;28;20202;-82
2021/12/16 11:06:51;;;;;;;16.23;10.30;;;5.90;99.90;;;;;;5082653;28;20295;-82
2021/12/16 11:09:36;;;;;;;20.85;10.35;;;4.40;99.90;;;;;;5081586;28;20199;-81
2021/12/16 11:12:14;;;;;;;11.50;8.30;;;6.00;99.90;;;;;;5072853;28;20757;-81
2021/12/16 11:14:44;;;;;;;16.52;10.82;;;6.00;99.90;;;;;;5084408;28;20664;-81
2021/12/16 11:17:15;;;;;;;13.15;10.07;;;6.10;99.90;;;;;;5081833;28;20617;-81
2021/12/16 11:19:46;;;;;;;18.60;10.15;;;6.00;99.90;;;;;;5081711;28;20833;-81
2021/12/16 11:22:16;;;;;;;15.32;10.38;;;5.90;99.90;;;;;;5075031;28;20256;-81
2021/12/16 11:24:45;;;;;;;17.52;11.40;;;6.10;99.90;;;;;;5086364;28;20241;-81
2021/12/16 11:27:31;;;;;;;16.88;11.02;;;6.10;99.90;;;;;;5087786;28;20841;-83
2021/12/16 11:30:17;;;;;;;16.63;11.23;;;6.10;99.90;;;;;;5086573;28;20291;-82
2021/12/16 11:32:48;;;;;;;23.40;10.95;;;6.10;99.90;;;;;;5085768;28;20230;-82
2021/12/16 11:35:38;;;;;;;19.08;11.05;;;3.80;99.90;;;;;;5087294;28;20565;-82
2021/12/16 11:38:13;;;;;;;19.00;13.02;;;6.10;99.90;;;;;;5087052;28;20327;-82
2021/12/16 11:41:00;;;;;;;15.50;9.35;;;6.20;99.90;;;;;;5086906;28;20210;-82
2021/12/16 11:43:44;;;;;;;20.38;10.98;;;6.20;99.90;;;;;;5082933;28;20199;-81
2021/12/16 11:46:20;;;;;;;15.88;11.05;;;6.10;99.90;;;;;;5084400;28;20231;-82
2021/12/16 11:48:49;;;;;;;18.20;10.50;;;6.10;99.90;;;;;;5080428;28;20735;-82
2021/12/16 11:51:20;;;;;;;17.80;10.25;;;6.10;99.90;;;;;;5079851;28;20307;-81
2021/12/16 11:53:53;;;;;;;21.42;11.45;;;6.10;99.90;;;;;;5076142;28;20280;-82
2021/12/16 11:56:35;;;;;;;22.52;15.02;;;6.10;99.90;;;;;;5078903;28;20206;-81
2021/12/16 11:59:02;;;;;;;17.60;12.55;;;;;;;;;;5082449;28;20203;-81
2021/12/16 12:01:29;;;;;;;17.80;12.02;;;6.60;99.90;;;;;;5081397;28;20199;-81
2021/12/16 12:04:02;;;;;;;15.70;10.05;;;6.10;99.90;;;;;;5079508;28;20742;-81
2021/12/16 12:06:31;;;;;;;16.83;12.27;;;6.90;99.90;;;;;;5077643;28;20200;-81
2021/12/16 12:09:00;;;;;;;17.08;9.80;;;6.20;99.90;;;;;;5080835;28;20195;-81
2021/12/16 12:11:30;;;;;;;15.50;10.50;;;6.20;99.90;;;;;;5079504;28;20266;-82
2021/12/16 12:13:59;;;;;;;18.67;11.57;;;6.10;99.90;;;;;;5080622;28;20235;-81
2021/12/16 12:16:34;;;;;;;19.40;11.45;;;6.10;99.90;;;;;;5077779;28;20272;-82
2021/12/16 12:19:09;;;;;;;16.27;11.32;;;6.10;99.90;;;;;;5076485;28;20607;-82
2021/12/16 12:21:38;;;;;;;19.00;11.65;;;6.10;99.90;;;;;;5080547;28;20229;-81
2021/12/16 12:24:09;;;;;;;18.20;12.73;;;6.20;99.90;;;;;;5082420;28;20595;-81
2021/12/16 12:26:40;;;;;;;20.25;12.30;;;6.20;99.90;;;;;;5074819;28;20256;-82
2021/12/16 12:29:11;;;;;;;19.27;12.07;;;6.30;99.90;;;;;;5079809;28;20238;-81
2021/12/16 12:31:43;;;;;;;17.90;12.85;;;7.80;99.90;;;;;;5079107;28;20903;-82
2021/12/16 12:34:10;;;;;;;22.13;13.60;;;;;;;;;;5080208;28;20235;-82
2021/12/16 12:36:38;;;;;;;24.23;15.35;;;6.40;99.90;;;;;;5080153;28;20207;-83
2021/12/16 12:39:08;;;;;;;16.17;11.57;;;6.40;99.90;;;;;;5082936;28;20215;-82
2021/12/16 12:41:35;;;;;;;19.92;13.40;;;;;;;;;;5081467;28;20199;-83
2021/12/16 12:44:05;;;;;;;16.73;12.10;;;6.60;99.90;;;;;;5079167;28;20207;-81
2021/12/16 12:46:33;;;;;;;18.52;11.23;;;;;;;;;;5068532;28;20566;-81
2021/12/16 12:49:07;;;;;;;15.77;10.43;;;6.60;99.90;;;;;;5083519;28;20296;-82
2021/12/16 12:51:37;;;;;;;21.20;12.65;;;7.00;99.90;;;;;;5080269;28;20289;-82
2021/12/16 12:54:20;;;;;;;17.67;12.00;;;7.20;99.90;;;;;;5079310;28;20321;-82
2021/12/16 12:56:48;;;;;;;22.23;10.85;;;6.80;99.90;;;;;;5079797;28;20203;-82
2021/12/16 12:59:18;;;;;;;15.43;11.47;;;;;;;;;;5082761;28;20608;-82
2021/12/16 13:01:50;;;;;;;14.50;10.57;;;6.80;99.90;;;;;;5082011;28;20685;-81
2021/12/16 13:04:21;;;;;;;17.23;12.00;;;6.90;99.90;;;;;;5081468;28;20642;-82
2021/12/16 13:06:52;;;;;;;16.63;11.20;;;6.70;99.90;;;;;;5067950;28;20698;-82
2021/12/16 13:09:37;;;;;;;16.60;11.53;;;6.90;99.90;;;;;;5076982;28;20688;-82
2021/12/16 13:12:31;;;;;;;18.33;11.73;;;6.90;99.90;;;;;;5072750;28;20637;-81
2021/12/16 13:15:10;;;;;;;18.20;10.57;;;6.90;99.90;;;;;;5079686;28;21267;-81
2021/12/16 13:23:32;;;;;;;22.77;11.23;;;7.20;99.90;;;;;;5080400;28;20641;-82
2021/12/16 13:29:06;;;;;;;14.73;10.80;;;6.90;99.90;;;;;;5081251;28;20674;-81
2021/12/16 13:31:51;;;;;;;14.90;10.90;;;6.90;99.90;;;;;;5077082;28;20638;-81
2021/12/16 13:34:34;;;;;;;14.20;9.67;;;6.80;99.90;;;;;;5079667;28;20793;-81
2021/12/16 13:37:13;;;;;;;18.57;10.63;;;6.80;99.90;;;;;;5085550;28;21017;-82
2021/12/16 13:39:47;;;;;;;20.83;9.67;;;6.80;99.90;;;;;;5079517;28;20652;-82
2021/12/16 13:42:16;;;;;;;13.13;10.03;;;6.80;99.90;;;;;;5082126;28;21122;-81
2021/12/16 13:44:54;;;;;;;11.87;9.17;;;6.80;99.90;;;;;;5084734;28;20741;-82
2021/12/16 13:47:37;;;;;;;19.37;10.50;;;6.90;99.90;;;;;;5078704;28;20636;-82
2021/12/16 14:01:54;;;;;;;19.52;11.93;;;6.70;99.90;;;;;;5075277;28;20629;-81
2021/12/16 14:04:41;;;;;;;17.53;10.70;;;6.80;99.90;;;;;;5085217;28;20195;-81
2021/12/16 14:07:28;;;;;;;13.50;10.43;;;6.70;99.90;;;;;;5076389;28;20655;-81
2021/12/16 14:10:02;;;;;;;18.13;11.45;;;;;;;;;;5074562;28;20737;-82
2021/12/16 14:15:18;;;;;;;14.50;10.50;;;;;;;;;;5085154;28;21088;-81
2021/12/16 14:17:54;;;;;;;16.37;11.13;;;6.70;99.90;;;;;;5082873;28;21504;-81
2021/12/16 14:23:22;;;;;;;14.43;10.40;;;6.70;99.90;;;;;;5082833;28;20647;-81
2021/12/16 14:26:14;;;;;;;16.85;10.65;;;;;;;;;;5080733;28;20745;-81
2021/12/16 14:32:03;;;;;;;17.60;11.00;;;6.70;99.90;;;;;;5078721;28;20207;-81
2021/12/16 14:37:32;;;;;;;16.58;12.23;;;6.60;99.90;;;;;;5083077;28;20226;-81
2021/12/16 14:40:10;;;;;;;15.00;11.15;;;;;;;;;;5083471;28;20222;-82
2021/12/16 14:42:48;;;;;;;15.63;11.55;;;6.60;99.90;;;;;;5082229;28;20210;-81
2021/12/16 14:45:27;;;;;;;18.63;11.82;;;6.70;99.90;;;;;;5080241;28;20875;-82
2021/12/16 14:48:09;;;;;;;19.90;11.52;;;6.60;99.90;;;;;;5080514;28;20249;-82
2021/12/16 14:50:41;;;;;;;17.05;10.48;;;6.60;99.90;;;;;;5080949;28;20369;-82
2021/12/16 14:53:23;;;;;;;19.60;11.30;;;6.60;99.90;;;;;;5081347;28;20281;-81
2021/12/16 14:55:52;;;;;;;14.90;11.60;;;6.90;99.90;;;;;;5080688;28;20212;-82
2021/12/16 14:58:22;;;;;;;19.33;11.50;;;6.60;99.90;;;;;;5078124;28;20208;-82
2021/12/16 15:00:53;;;;;;;19.77;12.18;;;6.50;99.90;;;;;;5081509;28;20203;-81
2021/12/16 15:03:23;;;;;;;15.07;10.77;;;6.50;99.90;;;;;;5075264;28;20227;-82
2021/12/16 15:05:52;;;;;;;17.88;11.45;;;6.50;99.90;;;;;;5079392;28;20203;-83
2021/12/16 15:08:27;;;;;;;18.65;12.13;;;6.50;99.90;;;;;;5081350;28;20210;-81
2021/12/16 15:10:56;;;;;;;16.67;10.80;;;6.40;99.90;;;;;;5080767;28;20207;-82
2021/12/16 15:13:29;;;;;;;18.75;11.55;;;;;;;;;;5081494;28;20234;-82
2021/12/16 15:16:19;;;;;;;17.95;10.55;;;;;;;;;;5078324;28;20619;-82
2021/12/16 15:38:38;;;;;;;15.40;10.48;;;5.90;99.90;;;;;;5076775;28;20210;-82
2021/12/16 15:43:56;;;;;;;14.70;10.65;;;5.70;99.90;;;;;;5080125;28;20253;-81
2021/12/16 15:46:27;;;;;;;15.27;10.60;;;5.60;99.90;;;;;;5078817;28;20214;-82
2021/12/16 15:48:54;;;;;;;19.33;11.65;;;5.60;99.90;;;;;;5077511;28;20692;-82
2021/12/16 15:51:23;;;;;;;13.98;9.98;;;5.50;99.90;;;;;;5080933;28;20203;-82
2021/12/16 15:53:55;;;;;;;15.25;11.07;;;5.50;99.90;;;;;;5077412;28;20223;-82
2021/12/16 15:56:26;;;;;;;20.10;11.60;;;5.40;99.90;;;;;;5081963;28;20216;-82
2021/12/16 15:59:00;;;;;;;16.52;10.88;;;5.40;99.90;;;;;;5079834;28;20204;-82
2021/12/16 16:01:30;;;;;;;20.83;12.45;;;5.40;99.90;;;;;;5078910;28;20199;-82
2021/12/16 16:03:57;;;;;;;14.85;11.35;;;;;;;;;;5078525;28;20260;-82
2021/12/16 16:06:24;;;;;;;20.17;11.00;;;;;;;;;;5077485;28;20235;-82
2021/12/16 16:08:55;;;;;;;18.33;12.27;;;5.10;99.90;;;;;;5083419;28;20202;-81
2021/12/16 16:11:25;;;;;;;13.95;11.10;;;5.10;99.90;;;;;;5075670;28;20212;-81
2021/12/16 16:13:57;;;;;;;13.25;10.27;;;4.50;99.90;;;;;;5079950;28;20242;-82